Newcastle Airport
YWLM : now visible

Airfield :











YOU CAN JOIN US ON...

 
LOGIN :

Register | Disclaimer

   EN    FR    IT 

 









Legend :    VFR   Marginal VFR   IFR   Intensive IFR   Very Intensive IFR
Visi :
Ceiling :
>= 8 km
>= 3000ft
5 to 8 km
1000 to 3000 ft
1500m to 5 km
500 to 1000 ft
800 to 1500m
200 to 500 ft
< 800m
< 200 ft
Symbols :   Thunderstorms  Fog  Heavy snow  Heavy precipitations  Wind > 20 kt






- Airport Elevation : 31 ft
- IATA code : NTL


YWLM - Newcastle

CURRENT METAR :
  • 181930Z AUTO 29005KT 9999 // NCD 07/07 Q1028

EXPIRED METARs :
  • 181903Z AUTO 31007KT 9999 // NCD 08/08 Q1027
  • 181842Z AUTO 31006KT 6000 // NCD 08/08 Q1027
  • 181830Z AUTO 31006KT 9999 // NCD 07/07 Q1027
  • 181800Z AUTO 00000KT 9999 // NCD 07/07 Q1027
  • 181730Z AUTO 00000KT 9999 // NCD 06/06 Q1027
  • 181700Z AUTO 00000KT 9999 // NCD 06/06 Q1027

TAF AMD TAF YWLM
Valid from the 18 at 20:00 until the 19 at 18:00 UTC


181950Z 1820/1918 29005KT 9999 FEW001
BECMG 1822/1900 31010KT CAVOK
FM190500 04010KT CAVOK
FM191400 30005KT CAVOK
PROB30 1820/1822 0300 FG BKN001
PROB30 1916/1918 0300 FG BKN001
YBBB FIR / Oceania



MET'MAP, your aeronautical weather chart ! - Copyright ORBIFLY December 2007 - Disclaimer

ORBIFLY MET'MAP TEAM :

Programming & Development : Alexandra Zaïnal
Concept & original design : Baudouin d'Aumeries
Assistance for programming : Marc-Olivier Méhu
Technical & hardware support : Manuel Goepfert

Contact : metmap@orbifly.com




SOURCES & CREDITS :

   NOAA       Earth
Advisory